Dallas, Wisconsin
Current Conditions -  °F | °C
As of 4:35 PM on Monday 24 Nov 2014 (Local Time) from KY23 Reporting Station
Haze Haze  
Wind Chill: 13°   Ceiling: 1700
Heat Index: 24°   Visibility: 5mi
Dew Point: 20°   Wind: 10mph
Humidity: 86%   Direction: 290°WNW
Pressure: 29.52"   Gusts: 18mph
Location:  45.26°N, 91.81°W
Report Text: KY23 242235Z AUTO 29009G16KT 260V320 5SM BR OVC017 M05/M07 A2952 RMK AO2 T10471067
Loading
Personal Weather Stations






























Interactive Weather Map New forecast layout! Learn more

10-Day Weather Forecast

Advertisements
Track Severe Weather on mobile